createdAt,value
2022-10-24T00:01:21.662Z,99021.94
2022-10-24T00:03:49.913Z,99026.44
2022-10-24T00:06:18.412Z,99024.09
2022-10-24T00:08:45.430Z,99016.50
2022-10-24T00:11:15.969Z,99020.81
2022-10-24T00:13:43.583Z,99013.78
2022-10-24T00:16:11.554Z,99020.81
2022-10-24T00:18:38.942Z,99015.84
2022-10-24T00:21:06.385Z,99022.06
2022-10-24T00:23:33.562Z,99020.41
2022-10-24T00:26:02.005Z,99023.53
2022-10-24T00:28:29.651Z,99022.75
2022-10-24T00:30:57.006Z,99009.63
2022-10-24T00:33:24.884Z,99012.25
2022-10-24T00:35:51.985Z,99002.97
2022-10-24T00:38:19.137Z,99009.25
2022-10-24T00:40:46.477Z,99003.28
2022-10-24T00:43:19.021Z,98999.84
2022-10-24T00:45:50.894Z,98992.38
2022-10-24T00:48:23.504Z,99003.28
2022-10-24T00:50:54.893Z,98997.88
2022-10-24T00:53:22.449Z,98994.41
2022-10-24T00:55:52.997Z,99001.91
2022-10-24T00:58:22.308Z,98987.13
2022-10-24T01:00:49.784Z,98986.81
2022-10-24T01:03:16.892Z,98992.69
2022-10-24T01:06:10.364Z,98995.59
2022-10-24T01:08:37.405Z,98991.03
2022-10-24T01:11:23.054Z,98987.87
2022-10-24T01:13:58.200Z,98981.75
2022-10-24T01:16:32.396Z,98984.69
2022-10-24T01:19:11.611Z,98981.69
2022-10-24T01:22:00.121Z,98980.16
2022-10-24T01:24:55.813Z,98989.16
2022-10-24T01:27:41.983Z,99000.09
2022-10-24T01:30:11.693Z,99009.78
2022-10-24T01:33:00.631Z,99002.13
2022-10-24T01:35:46.362Z,98995.34
2022-10-24T01:38:16.509Z,98995.50
2022-10-24T01:40:46.448Z,98992.09
2022-10-24T01:43:15.419Z,98995.31
2022-10-24T01:45:46.392Z,98990.62
2022-10-24T01:48:17.797Z,98988.84
2022-10-24T01:50:46.169Z,98982.22
2022-10-24T01:53:13.759Z,98983.44
2022-10-24T01:55:41.275Z,98985.50
2022-10-24T01:58:08.521Z,98977.19
2022-10-24T02:00:36.184Z,98972.00
2022-10-24T02:03:17.280Z,98968.12
2022-10-24T02:05:49.494Z,98965.63
2022-10-24T02:08:22.030Z,98953.59
2022-10-24T02:10:53.189Z,98951.78
2022-10-24T02:13:32.242Z,98948.47
2022-10-24T02:16:00.836Z,98952.06
2022-10-24T02:18:28.902Z,98937.97
2022-10-24T02:21:08.193Z,98942.13
2022-10-24T02:23:43.462Z,98944.91
2022-10-24T02:26:20.522Z,98942.72
2022-10-24T02:28:49.832Z,98949.34
2022-10-24T02:31:22.060Z,98955.56
2022-10-24T02:33:50.214Z,98941.63
2022-10-24T02:36:20.157Z,98942.81
2022-10-24T02:38:48.921Z,98944.34
2022-10-24T02:41:21.306Z,98944.69
2022-10-24T02:43:50.273Z,98946.03
2022-10-24T02:46:18.906Z,98947.84
2022-10-24T02:48:51.170Z,98948.28
2022-10-24T02:51:21.052Z,98959.31
2022-10-24T02:53:48.189Z,98966.66
2022-10-24T02:56:15.208Z,98968.78
2022-10-24T02:58:42.615Z,98956.16
2022-10-24T03:01:09.733Z,98942.16
2022-10-24T03:03:36.826Z,98943.09
2022-10-24T03:06:04.250Z,98932.06
2022-10-24T03:08:31.272Z,98921.03
2022-10-24T03:10:58.284Z,98910.13
2022-10-24T03:13:25.550Z,98903.37
2022-10-24T03:15:52.602Z,98905.16
2022-10-24T03:18:19.606Z,98911.28
2022-10-24T03:20:47.109Z,98923.97
2022-10-24T03:23:14.216Z,98926.75
2022-10-24T03:25:41.219Z,98925.34
2022-10-24T03:28:08.587Z,98919.66
2022-10-24T03:30:35.618Z,98918.84
2022-10-24T03:33:02.677Z,98931.44
2022-10-24T03:35:30.524Z,98924.25
2022-10-24T03:37:57.568Z,98922.28
2022-10-24T03:40:24.560Z,98932.81
2022-10-24T03:42:52.334Z,98922.44
2022-10-24T03:45:19.370Z,98919.97
2022-10-24T03:47:46.341Z,98928.28
2022-10-24T03:50:13.663Z,98925.66
2022-10-24T03:52:40.657Z,98940.00
2022-10-24T03:55:08.043Z,98939.88
2022-10-24T03:57:35.333Z,98939.88
2022-10-24T04:00:02.441Z,98931.91
2022-10-24T04:02:33.663Z,98946.97
2022-10-24T04:05:01.484Z,98947.81
2022-10-24T04:07:31.477Z,98944.75
2022-10-24T04:09:58.521Z,98946.91
2022-10-24T04:12:25.833Z,98939.88
2022-10-24T04:14:52.986Z,98934.78
2022-10-24T04:17:19.994Z,98935.78
2022-10-24T04:19:47.353Z,98931.34
2022-10-24T04:22:14.363Z,98921.56
2022-10-24T04:24:41.699Z,98924.34
2022-10-24T04:27:09.039Z,98927.16
2022-10-24T04:29:36.497Z,98934.59
2022-10-24T04:32:04.211Z,98933.75
2022-10-24T04:34:35.994Z,98927.09
2022-10-24T04:37:03.702Z,98925.84
2022-10-24T04:39:30.725Z,98922.28
2022-10-24T04:41:58.014Z,98916.66
2022-10-24T04:44:25.006Z,98926.16
2022-10-24T04:46:51.989Z,98913.19
2022-10-24T04:49:19.884Z,98899.38
2022-10-24T04:51:46.867Z,98901.75
2022-10-24T04:54:13.996Z,98899.53
2022-10-24T04:56:41.598Z,98896.63
2022-10-24T04:59:08.609Z,98900.19
2022-10-24T05:01:35.688Z,98909.59
2022-10-24T05:04:03.163Z,98917.38
2022-10-24T05:06:30.266Z,98920.38
2022-10-24T05:08:57.273Z,98923.81
2022-10-24T05:11:24.590Z,98921.78
2022-10-24T05:13:51.578Z,98939.03
2022-10-24T05:16:18.577Z,98941.00
2022-10-24T05:18:45.879Z,98943.16
2022-10-24T05:21:12.867Z,98943.88
2022-10-24T05:23:39.898Z,98958.94
2022-10-24T05:26:07.606Z,98968.44
2022-10-24T05:28:35.779Z,98959.19
2022-10-24T05:31:02.827Z,98960.84
2022-10-24T05:33:30.217Z,98963.63
2022-10-24T05:35:57.284Z,98955.03
2022-10-24T05:38:25.013Z,98956.41
2022-10-24T05:40:52.491Z,98965.53
2022-10-24T05:43:19.594Z,98972.75
2022-10-24T05:48:21.284Z,98983.78
2022-10-24T05:50:48.338Z,98979.53
2022-10-24T05:53:15.384Z,98983.78
2022-10-24T05:55:42.940Z,98991.00
2022-10-24T05:58:09.946Z,98999.00
2022-10-24T06:00:37.047Z,98991.28
2022-10-24T06:03:04.415Z,98997.63
2022-10-24T06:05:31.421Z,98985.59
2022-10-24T06:07:59.488Z,98984.88
2022-10-24T06:10:26.882Z,98980.06
2022-10-24T06:12:53.870Z,98975.50
2022-10-24T06:15:21.001Z,98978.09
2022-10-24T06:17:48.328Z,98974.66
2022-10-24T06:20:15.342Z,98961.44
2022-10-24T06:22:45.474Z,98955.19
2022-10-24T06:25:14.100Z,98956.28
2022-10-24T06:27:41.540Z,98946.91
2022-10-24T06:30:10.357Z,98942.47
2022-10-24T06:32:40.825Z,98940.56
2022-10-24T06:35:13.383Z,98947.88
2022-10-24T06:37:42.993Z,98955.88
2022-10-24T06:40:13.600Z,98961.69
2022-10-24T06:42:41.891Z,98960.00
2022-10-24T06:45:09.330Z,98947.03
2022-10-24T06:47:36.316Z,98959.44
2022-10-24T06:50:04.490Z,98961.53
2022-10-24T06:52:31.502Z,98963.87
2022-10-24T06:54:58.517Z,98971.59
2022-10-24T06:57:26.050Z,98969.06
2022-10-24T06:59:53.650Z,98962.44
2022-10-24T07:02:21.219Z,98965.78
2022-10-24T07:04:48.624Z,98981.84
2022-10-24T07:07:19.438Z,98991.25
2022-10-24T07:09:52.296Z,98995.37
2022-10-24T07:14:52.199Z,99006.38
2022-10-24T07:17:20.146Z,99009.66
2022-10-24T07:19:52.796Z,99008.66
2022-10-24T07:22:20.130Z,98997.03
2022-10-24T07:24:52.980Z,99010.16
2022-10-24T07:27:21.128Z,99008.88
2022-10-24T07:29:48.102Z,98995.00
2022-10-24T07:32:15.177Z,98987.25
2022-10-24T07:34:42.513Z,98999.97
2022-10-24T07:37:09.591Z,98999.38
2022-10-24T07:39:37.464Z,99013.25
2022-10-24T07:42:04.825Z,99004.25
2022-10-24T07:44:31.951Z,99008.03
2022-10-24T07:46:58.974Z,99019.59
2022-10-24T07:49:29.054Z,99020.47
2022-10-24T07:51:58.497Z,99023.47
2022-10-24T07:54:26.807Z,99029.34
2022-10-24T07:56:54.282Z,99018.84
2022-10-24T07:59:40.614Z,99024.91
2022-10-24T08:02:11.258Z,99034.03
2022-10-24T08:04:39.013Z,99030.12
2022-10-24T08:07:13.089Z,99034.88
2022-10-24T08:09:42.385Z,99033.66
2022-10-24T08:12:10.039Z,99030.09
2022-10-24T08:14:38.345Z,99014.69
2022-10-24T08:17:05.751Z,99009.28
2022-10-24T08:19:33.274Z,99007.47
2022-10-24T08:22:01.013Z,99007.28
2022-10-24T08:24:28.725Z,99008.53
2022-10-24T08:26:58.273Z,98997.56
2022-10-24T08:29:25.600Z,98993.84
2022-10-24T08:31:54.730Z,99005.78
2022-10-24T08:34:22.350Z,98992.16
2022-10-24T08:36:49.827Z,98988.72
2022-10-24T08:39:17.953Z,98986.31
2022-10-24T08:42:12.344Z,98994.97
2022-10-24T08:44:41.864Z,98987.69
2022-10-24T08:47:09.995Z,98984.69
2022-10-24T08:49:57.753Z,98990.69
2022-10-24T08:52:31.714Z,98990.00
2022-10-24T08:55:04.801Z,98988.50
2022-10-24T08:57:34.930Z,98981.91
2022-10-24T09:00:18.891Z,98985.19
2022-10-24T09:02:51.496Z,98982.34
2022-10-24T09:05:26.192Z,98980.41
2022-10-24T09:08:03.170Z,98980.13
2022-10-24T09:10:44.376Z,98984.66
2022-10-24T09:13:14.294Z,98981.19
2022-10-24T09:15:43.208Z,98977.34
2022-10-24T09:18:34.898Z,98993.19
2022-10-24T09:21:05.948Z,98987.25
2022-10-24T09:23:34.413Z,98979.06
2022-10-24T09:26:03.328Z,98989.28
2022-10-24T09:28:31.441Z,98999.22
2022-10-24T09:30:58.433Z,98999.44
2022-10-24T09:33:30.324Z,98997.09
2022-10-24T09:36:00.973Z,99000.59
2022-10-24T09:38:34.235Z,99011.09
2022-10-24T09:41:07.506Z,99010.37
2022-10-24T09:43:43.385Z,99016.56
2022-10-24T09:46:23.091Z,99027.88
2022-10-24T09:48:50.183Z,99024.03
2022-10-24T09:51:26.020Z,99014.09
2022-10-24T09:54:11.916Z,99008.78
2022-10-24T09:56:41.218Z,99010.97
2022-10-24T09:59:20.289Z,99013.22
2022-10-24T10:01:47.781Z,99000.25
2022-10-24T10:04:17.640Z,99012.00
2022-10-24T10:06:49.497Z,99006.66
2022-10-24T10:09:24.770Z,99011.03
2022-10-24T10:12:02.806Z,99009.81
2022-10-24T10:14:30.413Z,99009.44
2022-10-24T10:17:03.621Z,99011.31
2022-10-24T10:19:39.113Z,99007.72
2022-10-24T10:22:23.163Z,98995.31
2022-10-24T10:24:51.662Z,98996.19
2022-10-24T10:27:40.017Z,98993.16
2022-10-24T10:30:16.105Z,99003.25
2022-10-24T10:33:01.197Z,99000.16
2022-10-24T10:35:38.408Z,98998.94
2022-10-24T10:38:34.125Z,98997.16
2022-10-24T10:41:04.108Z,98982.91
2022-10-24T10:43:43.613Z,98984.72
2022-10-24T10:46:29.766Z,98979.13
2022-10-24T10:49:05.850Z,98984.81
2022-10-24T10:51:44.484Z,98967.06
2022-10-24T10:54:35.029Z,98974.41
2022-10-24T10:57:17.228Z,98973.16
2022-10-24T11:00:09.908Z,98969.75
2022-10-24T11:03:11.262Z,98961.03
2022-10-24T11:06:04.208Z,98972.16
2022-10-24T11:09:02.507Z,98967.59
2022-10-24T11:11:33.671Z,98961.53
2022-10-24T11:14:37.191Z,98964.84
2022-10-24T11:17:50.779Z,98968.47
2022-10-24T11:20:28.176Z,98963.47
2022-10-24T11:23:00.422Z,98978.16
2022-10-24T11:25:37.567Z,98975.66
2022-10-24T11:28:18.822Z,98977.94
2022-10-24T11:31:07.062Z,98970.38
2022-10-24T11:33:43.337Z,98973.97
2022-10-24T11:36:16.092Z,98972.84
2022-10-24T11:38:58.549Z,98971.22
2022-10-24T11:41:33.368Z,98969.41
2022-10-24T11:44:06.856Z,98975.00
2022-10-24T11:46:42.350Z,98969.94
2022-10-24T11:49:20.401Z,98966.47
2022-10-24T11:52:01.857Z,98971.06
2022-10-24T11:55:18.336Z,98968.47
2022-10-24T11:57:52.462Z,98971.75
2022-10-24T12:00:27.248Z,98966.50
2022-10-24T12:03:02.565Z,98968.16
2022-10-24T12:05:52.693Z,98967.50
2022-10-24T12:08:34.917Z,98957.09
2022-10-24T12:11:12.956Z,98958.91
2022-10-24T12:13:55.053Z,98953.28
2022-10-24T12:17:06.428Z,98945.31
2022-10-24T12:19:33.900Z,98941.03
2022-10-24T12:22:02.376Z,98930.19
2022-10-24T12:24:34.655Z,98932.19
2022-10-24T12:27:05.117Z,98939.44
2022-10-24T12:29:34.188Z,98941.41
2022-10-24T12:32:28.610Z,98947.69
2022-10-24T12:35:25.322Z,98943.22
2022-10-24T12:37:49.160Z,98928.69
2022-10-24T12:40:55.696Z,98935.78
2022-10-24T12:43:35.215Z,98933.34
2022-10-24T12:46:24.341Z,98934.34
2022-10-24T12:48:57.452Z,98931.31
2022-10-24T12:51:40.699Z,98932.78
2022-10-24T12:54:14.518Z,98927.19
2022-10-24T12:56:51.109Z,98914.69
2022-10-24T12:59:29.430Z,98909.41
2022-10-24T13:02:12.483Z,98910.91
2022-10-24T13:04:52.243Z,98907.78
2022-10-24T13:07:29.961Z,98903.47
2022-10-24T13:10:21.344Z,98902.28
2022-10-24T13:13:31.018Z,98901.97
2022-10-24T13:16:03.361Z,98898.81
2022-10-24T13:18:52.028Z,98883.31
2022-10-24T13:21:51.446Z,98886.97
2022-10-24T13:24:21.246Z,98899.00
2022-10-24T13:26:53.662Z,98889.09
2022-10-24T13:29:23.567Z,98905.44
2022-10-24T13:31:55.424Z,98903.28
2022-10-24T13:34:28.325Z,98888.63
2022-10-24T13:37:06.279Z,98894.22
2022-10-24T13:39:40.408Z,98902.97
2022-10-24T13:42:40.031Z,98890.91
2022-10-24T13:45:25.750Z,98898.31
2022-10-24T13:47:57.047Z,98898.47
2022-10-24T13:50:31.344Z,98890.41
2022-10-24T13:53:06.516Z,98906.91
2022-10-24T13:55:46.562Z,98890.88
2022-10-24T13:58:21.037Z,98890.91
2022-10-24T14:00:53.956Z,98890.72
2022-10-24T14:03:23.847Z,98884.62
2022-10-24T14:05:56.304Z,98887.28
2022-10-24T14:08:37.129Z,98884.62
2022-10-24T14:11:07.354Z,98874.25
2022-10-24T14:13:39.212Z,98874.59
2022-10-24T14:16:07.869Z,98876.06
2022-10-24T14:18:38.075Z,98874.06
2022-10-24T14:21:05.936Z,98872.75
2022-10-24T14:23:40.363Z,98877.66
2022-10-24T14:26:12.732Z,98880.47
2022-10-24T14:28:45.361Z,98882.63
2022-10-24T14:31:24.889Z,98870.59
2022-10-24T14:33:54.591Z,98882.66
2022-10-24T14:36:24.237Z,98881.00
2022-10-24T14:38:55.288Z,98877.34
2022-10-24T14:41:29.671Z,98875.53
2022-10-24T14:43:58.707Z,98870.78
2022-10-24T14:46:40.206Z,98875.72
2022-10-24T14:49:26.057Z,98873.25
2022-10-24T14:52:16.694Z,98876.84
2022-10-24T14:54:55.407Z,98885.09
2022-10-24T14:57:23.124Z,98883.59
2022-10-24T14:59:51.850Z,98880.78
2022-10-24T15:02:20.719Z,98883.09
2022-10-24T15:04:48.189Z,98876.00
2022-10-24T15:07:20.916Z,98879.66
2022-10-24T15:09:58.947Z,98883.28
2022-10-24T15:12:37.710Z,98878.97
2022-10-24T15:15:23.601Z,98871.53
2022-10-24T15:17:51.849Z,98868.06
2022-10-24T15:20:22.106Z,98870.69
2022-10-24T15:22:51.221Z,98858.00
2022-10-24T15:25:34.056Z,98865.91
2022-10-24T15:28:03.522Z,98865.41
2022-10-24T15:30:37.155Z,98859.00
2022-10-24T15:33:05.864Z,98859.28
2022-10-24T15:35:40.031Z,98870.94
2022-10-24T15:38:13.718Z,98858.22
2022-10-24T15:40:43.503Z,98859.72
2022-10-24T15:43:13.114Z,98861.03
2022-10-24T15:45:40.384Z,98866.28
2022-10-24T15:48:07.400Z,98852.63
2022-10-24T15:50:34.678Z,98855.28
2022-10-24T15:53:03.902Z,98848.84
2022-10-24T15:55:32.138Z,98846.53
2022-10-24T15:58:03.134Z,98855.09
2022-10-24T16:00:30.468Z,98846.53
2022-10-24T16:02:58.482Z,98854.22
2022-10-24T16:05:29.594Z,98855.56
2022-10-24T16:07:59.451Z,98858.69
2022-10-24T16:10:26.729Z,98860.13
2022-10-24T16:12:53.789Z,98858.03
2022-10-24T16:15:24.655Z,98832.03
2022-10-24T16:17:51.957Z,98844.84
2022-10-24T16:20:19.566Z,98857.34
2022-10-24T16:22:47.284Z,98858.78
2022-10-24T16:25:26.061Z,98844.47
2022-10-24T16:27:53.581Z,98844.38
2022-10-24T16:30:24.140Z,98840.69
2022-10-24T16:32:51.604Z,98851.72
2022-10-24T16:35:21.674Z,98851.72
2022-10-24T16:37:48.983Z,98850.37
2022-10-24T16:40:16.626Z,98848.59
2022-10-24T16:42:43.920Z,98838.53
2022-10-24T16:45:11.763Z,98843.94
2022-10-24T16:47:38.825Z,98836.38
2022-10-24T16:50:06.759Z,98846.78
2022-10-24T16:52:34.116Z,98852.03
2022-10-24T16:55:01.122Z,98850.81
2022-10-24T16:57:28.165Z,98863.50
2022-10-24T16:59:55.581Z,98865.53
2022-10-24T17:02:22.662Z,98859.75
2022-10-24T17:04:49.681Z,98855.28
2022-10-24T17:07:16.977Z,98850.53
2022-10-24T17:09:43.962Z,98849.16
2022-10-24T17:12:10.975Z,98842.75
2022-10-24T17:14:38.823Z,98845.53
2022-10-24T17:17:06.238Z,98853.06
2022-10-24T17:19:35.686Z,98851.63
2022-10-24T17:22:03.312Z,98850.97
2022-10-24T17:24:30.505Z,98851.28
2022-10-24T17:26:57.780Z,98858.47
2022-10-24T17:29:33.421Z,98866.53
2022-10-24T17:32:00.626Z,98857.31
2022-10-24T17:34:28.406Z,98850.97
2022-10-24T17:37:13.463Z,98851.34
2022-10-24T17:39:56.234Z,98844.47
2022-10-24T17:42:23.334Z,98838.16
2022-10-24T17:44:50.805Z,98834.41
2022-10-24T17:47:17.920Z,98840.78
2022-10-24T17:49:45.541Z,98844.06
2022-10-24T17:52:16.274Z,98839.84
2022-10-24T17:54:45.697Z,98846.06
2022-10-24T17:57:13.268Z,98856.66
2022-10-24T17:59:40.348Z,98848.53
2022-10-24T18:02:12.246Z,98850.13
2022-10-24T18:04:42.103Z,98846.19
2022-10-24T18:07:09.354Z,98852.69
2022-10-24T18:09:39.066Z,98870.19
2022-10-24T18:12:06.695Z,98861.09
2022-10-24T18:14:36.296Z,98849.22
2022-10-24T18:17:03.619Z,98853.19
2022-10-24T18:19:30.873Z,98845.00
2022-10-24T18:21:59.210Z,98841.91
2022-10-24T18:24:26.235Z,98836.75
2022-10-24T18:26:53.519Z,98840.63
2022-10-24T18:29:20.526Z,98847.63
2022-10-24T18:31:47.552Z,98851.13
2022-10-24T18:34:14.845Z,98845.44
2022-10-24T18:36:41.847Z,98849.78
2022-10-24T18:39:08.856Z,98847.31
2022-10-24T18:41:54.625Z,98855.06
2022-10-24T18:44:33.396Z,98851.72
2022-10-24T18:47:05.576Z,98835.97
2022-10-24T18:49:33.875Z,98838.12
2022-10-24T18:52:10.229Z,98826.59
2022-10-24T18:54:40.096Z,98811.25
2022-10-24T18:57:22.607Z,98810.09
2022-10-24T18:59:50.356Z,98804.69
2022-10-24T19:02:29.347Z,98803.53
2022-10-24T19:05:11.322Z,98812.56
2022-10-24T19:07:38.739Z,98809.03
2022-10-24T19:10:06.310Z,98807.38
2022-10-24T19:12:33.411Z,98815.25
2022-10-24T19:15:00.831Z,98815.50
2022-10-24T19:17:27.890Z,98813.16
2022-10-24T19:19:57.327Z,98812.87
2022-10-24T19:22:24.802Z,98812.03
2022-10-24T19:24:51.940Z,98804.59
2022-10-24T19:27:18.913Z,98810.84
2022-10-24T19:29:46.204Z,98802.97
2022-10-24T19:32:13.186Z,98799.34
2022-10-24T19:34:41.375Z,98808.62
2022-10-24T19:37:09.774Z,98802.56
2022-10-24T19:39:36.760Z,98810.75
2022-10-24T19:42:03.990Z,98796.63
2022-10-24T19:44:31.322Z,98798.81
2022-10-24T19:46:58.320Z,98793.00
2022-10-24T19:49:25.337Z,98795.75
2022-10-24T19:51:52.661Z,98802.41
2022-10-24T19:54:19.990Z,98793.62
2022-10-24T19:56:49.323Z,98798.72
2022-10-24T19:59:16.771Z,98785.69
2022-10-24T20:01:43.858Z,98769.91
2022-10-24T20:04:11.249Z,98760.22
2022-10-24T20:06:38.325Z,98752.97
2022-10-24T20:09:05.702Z,98763.00
2022-10-24T20:11:33.017Z,98759.16
2022-10-24T20:14:00.035Z,98760.91
2022-10-24T20:16:27.083Z,98764.09
2022-10-24T20:18:54.464Z,98773.00
2022-10-24T20:21:21.520Z,98765.91
2022-10-24T20:23:49.228Z,98769.06
2022-10-24T20:26:19.303Z,98774.09
2022-10-24T20:28:48.409Z,98775.22
2022-10-24T20:31:21.203Z,98762.00
2022-10-24T20:33:48.885Z,98788.81
2022-10-24T20:36:16.063Z,98764.66
2022-10-24T20:38:43.029Z,98765.41
2022-10-24T20:41:10.351Z,98782.81
2022-10-24T20:43:37.432Z,98788.66
2022-10-24T20:46:05.721Z,98774.63
2022-10-24T20:48:34.041Z,98787.63
2022-10-24T20:51:13.660Z,98785.00
2022-10-24T20:53:41.853Z,98770.41
2022-10-24T20:56:14.004Z,98798.13
2022-10-24T20:58:42.651Z,98781.84
2022-10-24T21:01:15.049Z,98786.44
2022-10-24T21:03:42.932Z,98794.00
2022-10-24T21:06:36.560Z,98791.75
2022-10-24T21:09:05.550Z,98798.41
2022-10-24T21:11:33.589Z,98794.94
2022-10-24T21:14:09.637Z,98785.53
2022-10-24T21:16:36.993Z,98787.75
2022-10-24T21:19:04.336Z,98784.56
2022-10-24T21:21:31.471Z,98789.50
2022-10-24T21:24:03.960Z,98781.16
2022-10-24T21:26:35.104Z,98799.88
2022-10-24T21:29:09.358Z,98793.41
2022-10-24T21:31:51.454Z,98801.81
2022-10-24T21:34:19.222Z,98804.28
2022-10-24T21:36:46.218Z,98801.22
2022-10-24T21:39:15.500Z,98805.94
2022-10-24T21:41:43.157Z,98816.47
2022-10-24T21:44:10.307Z,98827.28
2022-10-24T21:46:37.425Z,98837.78
2022-10-24T21:49:04.878Z,98836.53
2022-10-24T21:51:34.178Z,98830.88
2022-10-24T21:54:06.889Z,98839.31
2022-10-24T21:56:36.844Z,98844.16
2022-10-24T21:59:06.614Z,98840.56
2022-10-24T22:01:36.023Z,98822.84
2022-10-24T22:04:04.430Z,98826.00
2022-10-24T22:06:32.569Z,98823.38
2022-10-24T22:09:00.503Z,98827.66
2022-10-24T22:11:29.878Z,98819.53
2022-10-24T22:13:57.552Z,98817.06
2022-10-24T22:16:26.725Z,98809.53
2022-10-24T22:18:54.532Z,98818.28
2022-10-24T22:21:27.588Z,98812.72
2022-10-24T22:23:56.587Z,98828.09
2022-10-24T22:26:24.180Z,98817.59
2022-10-24T22:28:51.414Z,98818.84
2022-10-24T22:31:19.021Z,98807.91
2022-10-24T22:33:46.193Z,98812.28
2022-10-24T22:36:21.276Z,98815.09
2022-10-24T22:38:52.590Z,98815.19
2022-10-24T22:41:20.742Z,98815.94
2022-10-24T22:43:48.193Z,98817.97
2022-10-24T22:46:45.647Z,98811.63
2022-10-24T22:49:38.540Z,98805.78
2022-10-24T22:52:06.269Z,98808.34
2022-10-24T22:54:35.492Z,98809.63
2022-10-24T22:57:04.075Z,98812.47
2022-10-24T22:59:33.375Z,98820.22
2022-10-24T23:02:08.458Z,98812.78
2022-10-24T23:04:45.920Z,98811.50
2022-10-24T23:07:30.594Z,98781.19
2022-10-24T23:09:57.894Z,98772.16
2022-10-24T23:12:25.378Z,98779.16
2022-10-24T23:14:53.389Z,98776.06
2022-10-24T23:17:26.142Z,98785.28
2022-10-24T23:19:54.141Z,98786.78
2022-10-24T23:22:32.633Z,98787.63
2022-10-24T23:25:01.054Z,98775.16
2022-10-24T23:27:43.167Z,98765.47
2022-10-24T23:30:17.910Z,98757.56
2022-10-24T23:32:46.899Z,98749.78
2022-10-24T23:35:15.567Z,98757.06
2022-10-24T23:37:50.537Z,98752.88
2022-10-24T23:40:17.732Z,98756.97
2022-10-24T23:42:46.044Z,98758.63
2022-10-24T23:45:14.948Z,98747.66
2022-10-24T23:48:03.925Z,98756.16
2022-10-24T23:50:49.701Z,98749.25
2022-10-24T23:53:32.519Z,98754.50
2022-10-24T23:58:32.091Z,98773.94
